createdAt,value
2022-11-29T00:00:30.069Z,95.98
2022-11-29T00:03:16.097Z,96.24
2022-11-29T00:06:05.982Z,95.47
2022-11-29T00:08:50.131Z,96.44
2022-11-29T00:11:53.461Z,95.95
2022-11-29T00:14:37.208Z,95.69
2022-11-29T00:17:20.910Z,95.40
2022-11-29T00:20:07.566Z,95.88
2022-11-29T00:22:51.424Z,95.74
2022-11-29T00:25:35.228Z,96.01
2022-11-29T00:28:19.043Z,96.13
2022-11-29T00:31:03.036Z,95.98
2022-11-29T00:33:47.126Z,96.34
2022-11-29T00:36:32.665Z,95.71
2022-11-29T00:39:16.612Z,95.87
2022-11-29T00:42:00.593Z,96.72
2022-11-29T00:44:44.728Z,96.03
2022-11-29T00:47:28.921Z,95.98
2022-11-29T00:50:13.455Z,95.98
2022-11-29T00:52:58.750Z,95.61
2022-11-29T00:55:42.665Z,95.76
2022-11-29T00:58:26.752Z,95.87
2022-11-29T01:01:10.932Z,95.72
2022-11-29T01:03:55.096Z,96.88
2022-11-29T01:06:39.002Z,96.98
2022-11-29T01:09:24.329Z,97.30
2022-11-29T01:12:08.688Z,97.11
2022-11-29T01:14:52.609Z,96.54
2022-11-29T01:17:36.597Z,96.89
2022-11-29T01:20:21.030Z,96.83
2022-11-29T01:23:04.957Z,97.00
2022-11-29T01:25:57.617Z,96.49
2022-11-29T01:28:42.407Z,97.17
2022-11-29T01:31:28.425Z,97.22
2022-11-29T01:34:12.387Z,96.90
2022-11-29T01:36:56.263Z,97.18
2022-11-29T01:39:40.679Z,96.58
2022-11-29T01:42:26.368Z,96.91
2022-11-29T01:45:24.171Z,96.74
2022-11-29T01:48:08.166Z,96.54
2022-11-29T01:50:52.546Z,96.14
2022-11-29T01:53:37.830Z,96.79
2022-11-29T01:56:22.654Z,95.68
2022-11-29T01:59:12.500Z,96.79
2022-11-29T02:02:00.701Z,97.07
2022-11-29T02:04:48.133Z,96.71
2022-11-29T02:07:32.236Z,96.27
2022-11-29T02:10:16.890Z,95.79
2022-11-29T02:13:07.828Z,94.86
2022-11-29T02:16:04.609Z,95.66
2022-11-29T02:18:59.335Z,95.19
2022-11-29T02:21:48.207Z,94.50
2022-11-29T02:25:01.517Z,94.51
2022-11-29T02:28:34.122Z,95.34
2022-11-29T02:34:30.469Z,95.49
2022-11-29T02:37:45.467Z,95.72
2022-11-29T02:41:01.725Z,95.13
2022-11-29T02:44:06.838Z,95.54
2022-11-29T02:47:04.640Z,95.98
2022-11-29T02:50:15.378Z,96.37
2022-11-29T02:53:05.958Z,96.44
2022-11-29T02:55:58.445Z,96.12
2022-11-29T02:58:51.625Z,96.38
2022-11-29T03:01:41.687Z,95.89
2022-11-29T03:04:33.527Z,95.26
2022-11-29T03:07:26.998Z,95.67
2022-11-29T03:10:21.806Z,96.14
2022-11-29T03:13:11.549Z,96.59
2022-11-29T03:16:00.405Z,96.58
2022-11-29T03:18:58.465Z,95.66
2022-11-29T03:21:49.988Z,96.10
2022-11-29T03:24:40.643Z,96.33
2022-11-29T03:27:41.880Z,96.79
2022-11-29T03:30:25.680Z,96.36
2022-11-29T03:33:14.879Z,95.97
2022-11-29T03:36:05.996Z,96.38
2022-11-29T03:38:50.174Z,95.66
2022-11-29T03:41:42.712Z,96.18
2022-11-29T03:44:33.110Z,95.33
2022-11-29T03:47:20.926Z,94.83
2022-11-29T03:50:09.241Z,95.83
2022-11-29T03:52:56.230Z,95.33
2022-11-29T03:55:53.700Z,95.59
2022-11-29T03:58:52.478Z,95.65
2022-11-29T04:02:05.284Z,94.67
2022-11-29T04:05:31.374Z,95.31
2022-11-29T04:08:57.554Z,95.22
2022-11-29T04:12:29.218Z,96.49
2022-11-29T04:15:53.837Z,96.28
2022-11-29T04:19:00.184Z,97.13
2022-11-29T04:22:14.226Z,97.74
2022-11-29T04:25:22.719Z,98.58
2022-11-29T04:28:33.491Z,98.38
2022-11-29T04:31:36.583Z,97.60
2022-11-29T04:34:47.411Z,98.46
2022-11-29T04:37:55.867Z,98.58
2022-11-29T04:40:57.119Z,98.78
2022-11-29T04:43:54.187Z,98.30
2022-11-29T04:47:03.966Z,98.76
2022-11-29T04:50:10.905Z,98.69
2022-11-29T04:53:11.666Z,99.09
2022-11-29T04:56:06.832Z,98.56
2022-11-29T04:58:59.641Z,98.59
2022-11-29T05:02:00.687Z,98.22
2022-11-29T05:04:54.564Z,98.57
2022-11-29T05:07:47.627Z,98.11
2022-11-29T05:10:36.400Z,98.67
2022-11-29T05:13:29.011Z,97.70
2022-11-29T05:16:30.689Z,98.07
2022-11-29T05:19:43.098Z,98.36
2022-11-29T05:22:34.361Z,97.84
2022-11-29T05:25:35.112Z,98.20
2022-11-29T05:28:25.769Z,97.79
2022-11-29T05:31:39.180Z,97.97
2022-11-29T05:35:07.504Z,97.73
2022-11-29T05:37:56.137Z,97.77
2022-11-29T05:40:58.238Z,97.15
2022-11-29T05:43:49.790Z,97.16
2022-11-29T05:46:44.096Z,96.63
2022-11-29T05:49:38.405Z,97.38
2022-11-29T05:52:31.740Z,97.23
2022-11-29T05:55:30.827Z,98.03
2022-11-29T05:58:30.300Z,97.09
2022-11-29T06:01:23.207Z,96.75
2022-11-29T06:04:14.941Z,96.44
2022-11-29T06:07:05.293Z,96.77
2022-11-29T06:10:01.484Z,97.03
2022-11-29T06:13:01.674Z,96.55
2022-11-29T06:16:09.215Z,96.98
2022-11-29T06:19:25.513Z,96.56
2022-11-29T06:22:28.753Z,97.20
2022-11-29T06:25:24.617Z,97.10
2022-11-29T06:28:24.649Z,96.68
2022-11-29T06:31:17.369Z,97.08
2022-11-29T06:34:08.691Z,98.00
2022-11-29T06:36:56.048Z,97.38
2022-11-29T06:39:40.126Z,97.21
2022-11-29T06:42:23.924Z,97.37
2022-11-29T06:45:13.873Z,97.44
2022-11-29T06:48:02.857Z,96.50
2022-11-29T06:50:54.649Z,96.22
2022-11-29T06:53:45.139Z,96.56
2022-11-29T06:56:40.971Z,96.44
2022-11-29T06:59:40.331Z,96.66
2022-11-29T07:02:47.241Z,96.63
2022-11-29T07:05:32.739Z,97.55
2022-11-29T07:08:19.157Z,97.69
2022-11-29T07:11:03.411Z,97.38
2022-11-29T07:13:47.692Z,98.85
2022-11-29T07:16:38.119Z,98.32
2022-11-29T07:19:33.579Z,97.47
2022-11-29T07:22:33.196Z,97.77
2022-11-29T07:25:26.887Z,97.38
2022-11-29T07:28:24.887Z,98.09
2022-11-29T07:31:19.350Z,97.73
2022-11-29T07:34:11.908Z,98.00
2022-11-29T07:37:08.278Z,97.42
2022-11-29T07:40:00.804Z,97.44
2022-11-29T07:42:56.813Z,97.53
2022-11-29T07:45:41.221Z,96.69
2022-11-29T07:48:25.037Z,96.72
2022-11-29T07:51:09.374Z,96.33
2022-11-29T07:53:54.538Z,96.74
2022-11-29T07:56:38.342Z,96.58
2022-11-29T07:59:22.079Z,96.70
2022-11-29T08:02:11.470Z,95.45
2022-11-29T08:04:55.632Z,96.12
2022-11-29T08:07:41.085Z,94.65
2022-11-29T08:10:26.511Z,95.53
2022-11-29T08:13:10.530Z,95.24
2022-11-29T08:15:54.275Z,95.00
2022-11-29T08:18:38.059Z,94.75
2022-11-29T08:21:21.858Z,94.92
2022-11-29T08:24:06.144Z,93.91
2022-11-29T08:26:51.419Z,93.58
2022-11-29T08:29:35.222Z,93.62
2022-11-29T08:32:19.237Z,93.66
2022-11-29T08:35:03.171Z,94.29
2022-11-29T08:37:48.413Z,93.75
2022-11-29T08:40:32.318Z,93.98
2022-11-29T08:43:17.745Z,95.02
2022-11-29T08:46:01.842Z,94.85
2022-11-29T08:48:46.011Z,95.27
2022-11-29T08:51:29.867Z,94.83
2022-11-29T08:54:13.563Z,94.70
2022-11-29T08:57:37.269Z,94.85
2022-11-29T09:00:02.672Z,94.97
2022-11-29T09:02:48.193Z,94.63
2022-11-29T09:05:32.005Z,94.83
2022-11-29T09:08:16.559Z,93.30
2022-11-29T09:11:00.359Z,92.69
2022-11-29T09:13:45.920Z,94.32
2022-11-29T09:16:34.352Z,95.27
2022-11-29T09:19:18.293Z,94.62
2022-11-29T09:22:02.985Z,94.33
2022-11-29T09:24:47.162Z,93.92
2022-11-29T09:27:32.249Z,94.62
2022-11-29T09:30:22.082Z,94.48
2022-11-29T09:33:08.655Z,94.40
2022-11-29T09:35:52.494Z,93.64
2022-11-29T09:38:36.701Z,94.38
2022-11-29T09:41:42.947Z,94.65
2022-11-29T09:44:42.191Z,95.07
2022-11-29T09:47:50.992Z,94.50
2022-11-29T09:50:37.743Z,95.32
2022-11-29T09:53:33.313Z,95.39
2022-11-29T09:56:24.034Z,96.15
2022-11-29T09:59:13.293Z,95.99
2022-11-29T10:02:01.947Z,95.24
2022-11-29T10:04:51.613Z,95.74
2022-11-29T10:07:43.000Z,94.98
2022-11-29T10:10:30.892Z,94.50
2022-11-29T10:13:21.273Z,94.59
2022-11-29T10:16:13.148Z,93.98
2022-11-29T10:19:03.525Z,93.80
2022-11-29T10:21:55.727Z,94.05
2022-11-29T10:24:44.428Z,93.91
2022-11-29T10:27:31.135Z,94.35
2022-11-29T10:30:17.057Z,93.37
2022-11-29T10:33:02.716Z,93.78
2022-11-29T10:35:47.162Z,94.66
2022-11-29T10:38:31.782Z,95.23
2022-11-29T10:41:23.868Z,94.60
2022-11-29T10:44:07.783Z,95.77
2022-11-29T10:46:52.114Z,96.87
2022-11-29T10:49:37.385Z,96.21
2022-11-29T10:52:22.950Z,96.59
2022-11-29T10:55:13.508Z,96.39
2022-11-29T10:58:28.605Z,96.69
2022-11-29T11:01:16.511Z,97.39
2022-11-29T11:04:04.421Z,96.62
2022-11-29T11:06:51.600Z,97.60
2022-11-29T11:09:37.894Z,96.97
2022-11-29T11:12:24.965Z,96.06
2022-11-29T11:15:30.450Z,96.39
2022-11-29T11:18:22.371Z,97.22
2022-11-29T11:21:10.513Z,95.90
2022-11-29T11:23:57.813Z,96.58
2022-11-29T11:26:45.157Z,96.39
2022-11-29T11:29:36.632Z,96.35
2022-11-29T11:32:21.813Z,96.47
2022-11-29T11:35:22.958Z,96.21
2022-11-29T11:38:06.708Z,95.97
2022-11-29T11:41:01.815Z,96.26
2022-11-29T11:43:55.846Z,94.77
2022-11-29T11:46:49.353Z,95.80
2022-11-29T11:49:37.788Z,95.48
2022-11-29T11:52:24.452Z,96.77
2022-11-29T11:55:28.629Z,96.86
2022-11-29T11:58:19.199Z,96.51
2022-11-29T12:01:17.283Z,94.73
2022-11-29T12:04:07.007Z,94.90
2022-11-29T12:06:55.882Z,95.75
2022-11-29T12:09:45.894Z,96.73
2022-11-29T12:12:32.902Z,96.47
2022-11-29T12:15:20.896Z,97.47
2022-11-29T12:18:12.479Z,98.56
2022-11-29T12:21:01.265Z,98.41
2022-11-29T12:23:53.598Z,97.98
2022-11-29T12:26:57.586Z,99.14
2022-11-29T12:29:42.271Z,99.56
2022-11-29T12:32:58.773Z,99.29
2022-11-29T12:35:56.209Z,99.65
2022-11-29T12:38:59.955Z,98.67
2022-11-29T12:41:54.310Z,98.70
2022-11-29T12:44:50.398Z,98.21
2022-11-29T12:47:50.387Z,97.97
2022-11-29T12:50:44.672Z,97.82
2022-11-29T12:54:08.642Z,96.93
2022-11-29T12:56:59.821Z,96.80
2022-11-29T13:00:03.575Z,96.33
2022-11-29T13:03:03.837Z,97.64
2022-11-29T13:06:00.073Z,97.35
2022-11-29T13:08:57.315Z,98.28
2022-11-29T13:11:48.837Z,98.04
2022-11-29T13:14:43.452Z,98.52
2022-11-29T13:17:34.821Z,98.40
2022-11-29T13:20:31.956Z,97.48
2022-11-29T13:23:39.292Z,98.51
2022-11-29T13:26:29.096Z,99.93
2022-11-29T13:29:17.009Z,99.15
2022-11-29T13:32:27.038Z,99.81
2022-11-29T13:35:21.106Z,100.00
2022-11-29T13:38:11.558Z,99.33
2022-11-29T13:41:00.993Z,99.11
2022-11-29T13:43:51.990Z,98.78
2022-11-29T13:46:44.522Z,99.05
2022-11-29T13:49:54.497Z,99.39
2022-11-29T13:52:44.141Z,99.29
2022-11-29T13:55:31.718Z,98.43
2022-11-29T13:58:36.501Z,99.04
2022-11-29T14:01:20.879Z,97.79
2022-11-29T14:04:08.715Z,97.79
2022-11-29T14:07:07.066Z,97.63
2022-11-29T14:09:57.861Z,97.65
2022-11-29T14:12:44.477Z,96.85
2022-11-29T14:15:31.432Z,96.80
2022-11-29T14:18:49.912Z,96.59
2022-11-29T14:22:21.688Z,95.91
2022-11-29T14:28:34.184Z,94.90
2022-11-29T14:31:51.327Z,95.30
2022-11-29T14:34:43.175Z,95.17
2022-11-29T14:37:48.664Z,94.79
2022-11-29T14:40:44.181Z,94.86
2022-11-29T14:43:34.549Z,94.57
2022-11-29T14:46:29.662Z,94.49
2022-11-29T14:49:24.008Z,93.49
2022-11-29T14:52:20.303Z,93.44
2022-11-29T14:55:10.707Z,94.55
2022-11-29T14:58:23.273Z,94.00
2022-11-29T15:01:10.943Z,93.56
2022-11-29T15:03:57.608Z,93.76
2022-11-29T15:06:48.795Z,92.55
2022-11-29T15:09:38.368Z,93.59
2022-11-29T15:12:26.674Z,92.30
2022-11-29T15:15:28.908Z,93.82
2022-11-29T15:18:28.719Z,94.10
2022-11-29T15:21:26.140Z,93.65
2022-11-29T15:24:12.672Z,93.90
2022-11-29T15:26:57.767Z,93.87
2022-11-29T15:29:41.709Z,94.85
2022-11-29T15:32:30.496Z,94.16
2022-11-29T15:35:19.655Z,94.38
2022-11-29T15:38:03.907Z,93.47
2022-11-29T15:40:53.413Z,94.24
2022-11-29T15:43:40.136Z,94.15
2022-11-29T15:46:27.185Z,94.10
2022-11-29T15:49:19.638Z,93.37
2022-11-29T15:52:10.906Z,93.88
2022-11-29T15:55:00.879Z,93.02
2022-11-29T15:57:49.735Z,93.01
2022-11-29T16:00:33.905Z,92.73
2022-11-29T16:03:22.793Z,92.29
2022-11-29T16:06:22.623Z,91.76
2022-11-29T16:09:09.043Z,91.46
2022-11-29T16:11:52.971Z,90.80
2022-11-29T16:14:36.802Z,89.83
2022-11-29T16:17:21.732Z,90.03
2022-11-29T16:20:23.454Z,89.44
2022-11-29T16:23:14.858Z,89.59
2022-11-29T16:26:03.534Z,89.93
2022-11-29T16:28:49.661Z,90.18
2022-11-29T16:31:35.624Z,89.96
2022-11-29T16:34:27.696Z,89.70
2022-11-29T16:37:19.621Z,90.37
2022-11-29T16:40:05.416Z,89.82
2022-11-29T16:43:08.315Z,90.16
2022-11-29T16:46:34.722Z,89.85
2022-11-29T16:49:34.060Z,89.19
2022-11-29T16:52:25.526Z,88.85
2022-11-29T16:55:10.853Z,88.32
2022-11-29T16:57:54.803Z,88.23
2022-11-29T17:00:38.931Z,88.72
2022-11-29T17:03:23.260Z,88.93
2022-11-29T17:06:07.723Z,88.43
2022-11-29T17:08:53.166Z,88.15
2022-11-29T17:11:38.672Z,88.70
2022-11-29T17:14:22.798Z,87.74
2022-11-29T17:17:06.815Z,89.09
2022-11-29T17:19:50.666Z,89.92
2022-11-29T17:22:34.620Z,89.42
2022-11-29T17:25:18.451Z,89.20
2022-11-29T17:28:03.872Z,89.16
2022-11-29T17:30:47.645Z,89.70
2022-11-29T17:33:31.417Z,89.62
2022-11-29T17:36:19.330Z,90.41
2022-11-29T17:39:04.067Z,89.51
2022-11-29T17:41:48.194Z,90.95
2022-11-29T17:44:34.418Z,91.25
2022-11-29T17:47:18.231Z,91.88
2022-11-29T17:50:02.030Z,91.99
2022-11-29T17:52:47.129Z,92.27
2022-11-29T17:55:30.846Z,93.93
2022-11-29T17:58:14.597Z,93.18
2022-11-29T18:01:06.520Z,94.27
2022-11-29T18:03:53.738Z,94.62
2022-11-29T18:06:40.082Z,94.82
2022-11-29T18:09:23.858Z,95.51
2022-11-29T18:12:08.158Z,95.31
2022-11-29T18:14:52.093Z,95.70
2022-11-29T18:17:37.584Z,95.71
2022-11-29T18:20:21.533Z,95.29
2022-11-29T18:23:08.144Z,95.44
2022-11-29T18:25:57.492Z,95.20
2022-11-29T18:28:43.346Z,95.21
2022-11-29T18:31:29.285Z,93.70
2022-11-29T18:34:16.314Z,94.31
2022-11-29T18:37:00.296Z,94.99
2022-11-29T18:39:44.822Z,93.92
2022-11-29T18:42:28.992Z,94.91
2022-11-29T18:45:13.226Z,94.78
2022-11-29T18:47:57.345Z,95.54
2022-11-29T18:50:43.017Z,95.97
2022-11-29T18:53:27.094Z,96.81
2022-11-29T18:56:15.952Z,97.92
2022-11-29T18:59:01.753Z,97.95
2022-11-29T19:01:48.251Z,98.05
2022-11-29T19:04:32.886Z,99.15
2022-11-29T19:07:18.496Z,98.40
2022-11-29T19:10:03.098Z,98.05
2022-11-29T19:12:47.580Z,99.41
2022-11-29T19:15:31.963Z,100.00
2022-11-29T19:18:16.261Z,99.60
2022-11-29T19:21:06.993Z,100.00
2022-11-29T19:23:55.558Z,100.00
2022-11-29T19:26:39.937Z,100.00
2022-11-29T19:29:23.904Z,100.00
2022-11-29T19:32:08.780Z,100.00
2022-11-29T19:34:52.974Z,100.00
2022-11-29T19:37:36.973Z,100.00
2022-11-29T19:40:22.845Z,100.00
2022-11-29T19:43:06.971Z,100.00
2022-11-29T19:45:51.109Z,100.00
2022-11-29T19:48:35.164Z,100.00
2022-11-29T19:51:19.257Z,100.00
2022-11-29T19:54:05.431Z,100.00
2022-11-29T19:56:50.800Z,100.00
2022-11-29T19:59:34.685Z,100.00
2022-11-29T20:02:18.745Z,100.00
2022-11-29T20:05:02.893Z,100.00
2022-11-29T20:07:47.098Z,100.00
2022-11-29T20:10:31.219Z,100.00
2022-11-29T20:13:16.768Z,100.00
2022-11-29T20:16:03.281Z,99.68
2022-11-29T20:18:51.180Z,100.00
2022-11-29T20:21:38.306Z,100.00
2022-11-29T20:24:22.224Z,99.91
2022-11-29T20:27:06.562Z,100.00
2022-11-29T20:29:51.896Z,99.48
2022-11-29T20:32:36.528Z,98.94
2022-11-29T20:35:21.299Z,99.34
2022-11-29T20:38:19.241Z,99.24
2022-11-29T20:41:11.696Z,100.00
2022-11-29T20:43:57.482Z,98.97
2022-11-29T20:46:43.278Z,99.46
2022-11-29T20:49:27.758Z,99.91
2022-11-29T20:52:20.483Z,100.00
2022-11-29T20:55:05.091Z,99.70
2022-11-29T20:57:50.144Z,99.30
2022-11-29T21:00:34.603Z,99.25
2022-11-29T21:03:21.276Z,97.74
2022-11-29T21:06:07.241Z,97.41
2022-11-29T21:08:52.813Z,98.20
2022-11-29T21:11:37.200Z,97.78
2022-11-29T21:14:21.541Z,99.29
2022-11-29T21:17:06.238Z,98.36
2022-11-29T21:19:52.033Z,99.01
2022-11-29T21:22:46.956Z,99.15
2022-11-29T21:25:42.840Z,99.35
2022-11-29T21:28:31.461Z,98.86
2022-11-29T21:31:19.173Z,99.23
2022-11-29T21:34:03.821Z,97.56
2022-11-29T21:36:55.260Z,99.44
2022-11-29T21:39:39.041Z,98.12
2022-11-29T21:42:23.145Z,96.75
2022-11-29T21:45:13.434Z,97.51
2022-11-29T21:48:01.577Z,97.33
2022-11-29T21:50:50.644Z,98.45
2022-11-29T21:53:37.039Z,98.14
2022-11-29T21:56:20.705Z,97.56
2022-11-29T21:59:05.136Z,98.61
2022-11-29T22:01:49.373Z,98.20
2022-11-29T22:04:33.186Z,98.09
2022-11-29T22:07:17.045Z,97.16
2022-11-29T22:10:10.029Z,97.35
2022-11-29T22:12:57.442Z,100.00
2022-11-29T22:15:41.382Z,99.75
2022-11-29T22:18:27.822Z,99.67
2022-11-29T22:21:11.586Z,99.43
2022-11-29T22:23:57.939Z,99.10
2022-11-29T22:26:43.830Z,98.36
2022-11-29T22:29:27.776Z,98.28
2022-11-29T22:32:11.446Z,97.74
2022-11-29T22:34:55.245Z,97.94
2022-11-29T22:37:39.072Z,98.20
2022-11-29T22:40:22.966Z,97.32
2022-11-29T22:43:08.059Z,97.01
2022-11-29T22:45:51.861Z,97.77
2022-11-29T22:48:39.035Z,97.55
2022-11-29T22:51:26.326Z,98.02
2022-11-29T22:54:15.471Z,97.05
2022-11-29T22:56:59.482Z,97.43
2022-11-29T22:59:45.089Z,97.50
2022-11-29T23:02:29.260Z,98.13
2022-11-29T23:05:13.542Z,97.10
2022-11-29T23:07:58.492Z,97.68
2022-11-29T23:10:42.743Z,97.42
2022-11-29T23:13:27.037Z,96.56
2022-11-29T23:16:15.459Z,96.71
2022-11-29T23:19:00.508Z,97.27
2022-11-29T23:21:45.995Z,97.04
2022-11-29T23:24:30.618Z,97.25
2022-11-29T23:27:15.478Z,97.08
2022-11-29T23:29:59.441Z,96.84
2022-11-29T23:32:44.990Z,96.68
2022-11-29T23:35:29.016Z,96.08
2022-11-29T23:38:13.056Z,95.97
2022-11-29T23:40:57.610Z,95.98
2022-11-29T23:43:43.193Z,96.37
2022-11-29T23:46:27.357Z,96.93
2022-11-29T23:49:12.798Z,96.84
2022-11-29T23:51:56.920Z,95.65
2022-11-29T23:54:41.245Z,96.06
2022-11-29T23:57:25.493Z,96.02
